< < Back
Terminal Aerodrome Forecast


Current Version              Previous Versions:   1  2  3  4  5  6  7  8  9  

Terminal Aerodrome Forecast

887
FTUS42 KFFC 281739
TAFMCN
TAF
KMCN 281739Z 2818/0118 08010G18KT P6SM BKN050
     FM010000 06008KT 6SM -RA BKN015
     FM010600 06005KT 4SM -RA OVC008
     FM011000 05008KT 2SM -RADZ OVC004
     FM011600 04008KT 4SM -RADZ OVC006=

Latest METAR

710
SAUS80 KWBC 281700 RRA
MTRMCN
METAR KMCN 281653Z 10010G17KT 10SM SCT046 10/01 A3056 RMK AO2 SLP349
T01000011


USA.gov is the U.S. government's official web portal to all federal, state and local government web resources and services.